sensor_id;sensor_type;location;lat;lon;timestamp;P1;durP1;ratioP1;P2;durP2;ratioP2
4652;SDS011;9900;48.738;9.306;2023-03-03T00:02:03;43.70;;;22.30;;
4652;SDS011;9900;48.738;9.306;2023-03-03T00:04:33;44.63;;;23.43;;
4652;SDS011;9900;48.738;9.306;2023-03-03T00:07:02;46.10;;;23.73;;
4652;SDS011;9900;48.738;9.306;2023-03-03T00:09:31;48.03;;;22.80;;
4652;SDS011;9900;48.738;9.306;2023-03-03T00:11:59;40.20;;;21.50;;
4652;SDS011;9900;48.738;9.306;2023-03-03T00:14:31;47.13;;;23.77;;
4652;SDS011;9900;48.738;9.306;2023-03-03T00:17:00;46.63;;;24.37;;
4652;SDS011;9900;48.738;9.306;2023-03-03T00:19:41;40.27;;;23.10;;
4652;SDS011;9900;48.738;9.306;2023-03-03T00:22:14;44.63;;;22.80;;
4652;SDS011;9900;48.738;9.306;2023-03-03T00:24:49;42.60;;;23.40;;
4652;SDS011;9900;48.738;9.306;2023-03-03T00:27:21;44.87;;;24.40;;
4652;SDS011;9900;48.738;9.306;2023-03-03T00:29:56;48.40;;;24.30;;
4652;SDS011;9900;48.738;9.306;2023-03-03T00:32:26;42.13;;;21.20;;
4652;SDS011;9900;48.738;9.306;2023-03-03T00:34:59;48.70;;;24.50;;
4652;SDS011;9900;48.738;9.306;2023-03-03T00:37:31;47.40;;;23.20;;
4652;SDS011;9900;48.738;9.306;2023-03-03T00:40:08;43.37;;;24.03;;
4652;SDS011;9900;48.738;9.306;2023-03-03T00:42:44;39.90;;;21.93;;
4652;SDS011;9900;48.738;9.306;2023-03-03T00:45:17;44.87;;;21.93;;
4652;SDS011;9900;48.738;9.306;2023-03-03T00:47:51;49.53;;;23.50;;
4652;SDS011;9900;48.738;9.306;2023-03-03T00:50:31;51.23;;;23.67;;
4652;SDS011;9900;48.738;9.306;2023-03-03T00:53:02;41.53;;;23.17;;
4652;SDS011;9900;48.738;9.306;2023-03-03T00:55:33;44.20;;;22.73;;
4652;SDS011;9900;48.738;9.306;2023-03-03T00:58:02;43.03;;;23.90;;
4652;SDS011;9900;48.738;9.306;2023-03-03T01:00:31;40.90;;;23.37;;
4652;SDS011;9900;48.738;9.306;2023-03-03T01:03:01;45.77;;;23.27;;
4652;SDS011;9900;48.738;9.306;2023-03-03T01:05:32;51.07;;;25.30;;
4652;SDS011;9900;48.738;9.306;2023-03-03T01:08:01;46.43;;;23.30;;
4652;SDS011;9900;48.738;9.306;2023-03-03T01:10:31;48.70;;;23.43;;
4652;SDS011;9900;48.738;9.306;2023-03-03T01:13:02;48.43;;;23.90;;
4652;SDS011;9900;48.738;9.306;2023-03-03T01:15:31;48.23;;;22.70;;
4652;SDS011;9900;48.738;9.306;2023-03-03T01:18:00;46.27;;;24.07;;
4652;SDS011;9900;48.738;9.306;2023-03-03T01:20:29;46.23;;;23.10;;
4652;SDS011;9900;48.738;9.306;2023-03-03T01:22:59;46.47;;;23.80;;
4652;SDS011;9900;48.738;9.306;2023-03-03T01:25:28;48.00;;;23.00;;
4652;SDS011;9900;48.738;9.306;2023-03-03T01:27:57;44.93;;;22.93;;
4652;SDS011;9900;48.738;9.306;2023-03-03T01:30:26;47.90;;;23.97;;
4652;SDS011;9900;48.738;9.306;2023-03-03T01:32:54;45.63;;;24.40;;
4652;SDS011;9900;48.738;9.306;2023-03-03T01:35:23;43.90;;;23.77;;
4652;SDS011;9900;48.738;9.306;2023-03-03T01:37:52;48.50;;;22.97;;
4652;SDS011;9900;48.738;9.306;2023-03-03T01:40:23;42.47;;;23.47;;
4652;SDS011;9900;48.738;9.306;2023-03-03T01:42:53;45.17;;;22.80;;
4652;SDS011;9900;48.738;9.306;2023-03-03T01:45:22;42.67;;;22.10;;
4652;SDS011;9900;48.738;9.306;2023-03-03T01:47:53;48.50;;;23.37;;
4652;SDS011;9900;48.738;9.306;2023-03-03T01:50:37;41.20;;;22.33;;
4652;SDS011;9900;48.738;9.306;2023-03-03T01:53:11;45.70;;;25.20;;
4652;SDS011;9900;48.738;9.306;2023-03-03T01:55:42;48.50;;;24.63;;
4652;SDS011;9900;48.738;9.306;2023-03-03T01:58:13;44.60;;;23.23;;
4652;SDS011;9900;48.738;9.306;2023-03-03T02:00:45;42.70;;;22.70;;
4652;SDS011;9900;48.738;9.306;2023-03-03T02:03:17;43.80;;;23.23;;
4652;SDS011;9900;48.738;9.306;2023-03-03T02:05:48;44.77;;;22.63;;
4652;SDS011;9900;48.738;9.306;2023-03-03T02:08:19;44.53;;;21.30;;
4652;SDS011;9900;48.738;9.306;2023-03-03T02:10:51;42.57;;;21.67;;
4652;SDS011;9900;48.738;9.306;2023-03-03T02:13:20;52.87;;;23.40;;
4652;SDS011;9900;48.738;9.306;2023-03-03T02:15:49;40.70;;;22.20;;
4652;SDS011;9900;48.738;9.306;2023-03-03T02:18:18;47.97;;;22.90;;
4652;SDS011;9900;48.738;9.306;2023-03-03T02:20:50;57.87;;;22.93;;
4652;SDS011;9900;48.738;9.306;2023-03-03T02:23:22;42.63;;;21.97;;
4652;SDS011;9900;48.738;9.306;2023-03-03T02:26:02;47.43;;;22.40;;
4652;SDS011;9900;48.738;9.306;2023-03-03T02:28:34;40.73;;;22.50;;
4652;SDS011;9900;48.738;9.306;2023-03-03T02:31:05;42.03;;;22.97;;
4652;SDS011;9900;48.738;9.306;2023-03-03T02:33:37;49.50;;;23.53;;
4652;SDS011;9900;48.738;9.306;2023-03-03T02:36:06;41.60;;;21.90;;
4652;SDS011;9900;48.738;9.306;2023-03-03T02:38:38;46.33;;;24.33;;
4652;SDS011;9900;48.738;9.306;2023-03-03T02:41:12;40.20;;;21.37;;
4652;SDS011;9900;48.738;9.306;2023-03-03T02:43:45;58.97;;;23.13;;
4652;SDS011;9900;48.738;9.306;2023-03-03T02:46:18;43.20;;;22.40;;
4652;SDS011;9900;48.738;9.306;2023-03-03T02:48:47;47.57;;;23.33;;
4652;SDS011;9900;48.738;9.306;2023-03-03T02:51:15;45.73;;;22.63;;
4652;SDS011;9900;48.738;9.306;2023-03-03T02:53:44;43.30;;;22.00;;
4652;SDS011;9900;48.738;9.306;2023-03-03T02:56:14;46.33;;;23.23;;
4652;SDS011;9900;48.738;9.306;2023-03-03T02:58:42;41.97;;;22.23;;
4652;SDS011;9900;48.738;9.306;2023-03-03T03:01:11;44.90;;;22.80;;
4652;SDS011;9900;48.738;9.306;2023-03-03T03:03:40;48.93;;;23.63;;
4652;SDS011;9900;48.738;9.306;2023-03-03T03:06:09;46.73;;;22.83;;
4652;SDS011;9900;48.738;9.306;2023-03-03T03:08:38;43.60;;;23.20;;
4652;SDS011;9900;48.738;9.306;2023-03-03T03:11:06;42.70;;;21.90;;
4652;SDS011;9900;48.738;9.306;2023-03-03T03:13:36;40.70;;;22.40;;
4652;SDS011;9900;48.738;9.306;2023-03-03T03:16:05;41.63;;;21.67;;
4652;SDS011;9900;48.738;9.306;2023-03-03T03:18:34;44.37;;;23.83;;
4652;SDS011;9900;48.738;9.306;2023-03-03T03:21:06;48.20;;;23.13;;
4652;SDS011;9900;48.738;9.306;2023-03-03T03:23:35;46.57;;;22.30;;
4652;SDS011;9900;48.738;9.306;2023-03-03T03:26:04;46.13;;;21.87;;
4652;SDS011;9900;48.738;9.306;2023-03-03T03:28:33;40.93;;;22.40;;
4652;SDS011;9900;48.738;9.306;2023-03-03T03:31:04;44.60;;;23.93;;
4652;SDS011;9900;48.738;9.306;2023-03-03T03:33:33;46.30;;;23.47;;
4652;SDS011;9900;48.738;9.306;2023-03-03T03:36:03;40.47;;;23.00;;
4652;SDS011;9900;48.738;9.306;2023-03-03T03:38:32;45.47;;;24.30;;
4652;SDS011;9900;48.738;9.306;2023-03-03T03:41:03;40.47;;;22.50;;
4652;SDS011;9900;48.738;9.306;2023-03-03T03:43:32;52.30;;;23.50;;
4652;SDS011;9900;48.738;9.306;2023-03-03T03:46:01;43.47;;;23.40;;
4652;SDS011;9900;48.738;9.306;2023-03-03T03:48:31;46.23;;;23.47;;
4652;SDS011;9900;48.738;9.306;2023-03-03T03:51:00;48.13;;;24.40;;
4652;SDS011;9900;48.738;9.306;2023-03-03T03:53:29;51.97;;;24.30;;
4652;SDS011;9900;48.738;9.306;2023-03-03T03:55:57;48.30;;;24.40;;
4652;SDS011;9900;48.738;9.306;2023-03-03T03:58:26;46.63;;;24.33;;
4652;SDS011;9900;48.738;9.306;2023-03-03T04:00:59;44.00;;;23.50;;
4652;SDS011;9900;48.738;9.306;2023-03-03T04:03:29;47.17;;;23.60;;
4652;SDS011;9900;48.738;9.306;2023-03-03T04:05:59;43.83;;;23.00;;
4652;SDS011;9900;48.738;9.306;2023-03-03T04:08:28;46.60;;;22.80;;
4652;SDS011;9900;48.738;9.306;2023-03-03T04:10:57;45.40;;;23.43;;
4652;SDS011;9900;48.738;9.306;2023-03-03T04:13:25;49.53;;;25.60;;
4652;SDS011;9900;48.738;9.306;2023-03-03T04:15:58;42.60;;;22.20;;
4652;SDS011;9900;48.738;9.306;2023-03-03T04:18:26;43.43;;;22.50;;
4652;SDS011;9900;48.738;9.306;2023-03-03T04:20:55;42.67;;;23.20;;
4652;SDS011;9900;48.738;9.306;2023-03-03T04:23:25;45.20;;;21.43;;
4652;SDS011;9900;48.738;9.306;2023-03-03T04:25:53;47.23;;;24.10;;
4652;SDS011;9900;48.738;9.306;2023-03-03T04:28:22;41.20;;;21.77;;
4652;SDS011;9900;48.738;9.306;2023-03-03T04:30:53;50.57;;;23.20;;
4652;SDS011;9900;48.738;9.306;2023-03-03T04:33:22;47.27;;;24.23;;
4652;SDS011;9900;48.738;9.306;2023-03-03T04:35:50;46.53;;;25.17;;
4652;SDS011;9900;48.738;9.306;2023-03-03T04:38:19;45.50;;;23.17;;
4652;SDS011;9900;48.738;9.306;2023-03-03T04:40:49;43.43;;;23.23;;
4652;SDS011;9900;48.738;9.306;2023-03-03T04:43:18;46.90;;;23.00;;
4652;SDS011;9900;48.738;9.306;2023-03-03T04:45:47;48.27;;;23.10;;
4652;SDS011;9900;48.738;9.306;2023-03-03T04:48:15;43.47;;;21.47;;
4652;SDS011;9900;48.738;9.306;2023-03-03T04:50:44;48.60;;;24.10;;
4652;SDS011;9900;48.738;9.306;2023-03-03T04:53:13;41.23;;;21.27;;
4652;SDS011;9900;48.738;9.306;2023-03-03T04:55:41;44.57;;;21.63;;
4652;SDS011;9900;48.738;9.306;2023-03-03T04:58:11;39.67;;;21.77;;
4652;SDS011;9900;48.738;9.306;2023-03-03T05:00:42;43.20;;;22.30;;
4652;SDS011;9900;48.738;9.306;2023-03-03T05:03:10;48.53;;;23.63;;
4652;SDS011;9900;48.738;9.306;2023-03-03T05:05:40;54.83;;;23.43;;
4652;SDS011;9900;48.738;9.306;2023-03-03T05:08:08;45.83;;;22.17;;
4652;SDS011;9900;48.738;9.306;2023-03-03T05:10:37;46.30;;;23.30;;
4652;SDS011;9900;48.738;9.306;2023-03-03T05:13:05;44.63;;;23.00;;
4652;SDS011;9900;48.738;9.306;2023-03-03T05:15:36;44.47;;;23.57;;
4652;SDS011;9900;48.738;9.306;2023-03-03T05:18:07;43.70;;;24.07;;
4652;SDS011;9900;48.738;9.306;2023-03-03T05:20:38;41.40;;;22.53;;
4652;SDS011;9900;48.738;9.306;2023-03-03T05:23:07;45.83;;;24.87;;
4652;SDS011;9900;48.738;9.306;2023-03-03T05:25:35;43.10;;;24.60;;
4652;SDS011;9900;48.738;9.306;2023-03-03T05:28:04;46.77;;;23.90;;
4652;SDS011;9900;48.738;9.306;2023-03-03T05:30:33;46.63;;;24.30;;
4652;SDS011;9900;48.738;9.306;2023-03-03T05:33:03;46.07;;;23.80;;
4652;SDS011;9900;48.738;9.306;2023-03-03T05:35:32;51.63;;;25.17;;
4652;SDS011;9900;48.738;9.306;2023-03-03T05:38:01;45.43;;;23.47;;
4652;SDS011;9900;48.738;9.306;2023-03-03T05:40:31;44.83;;;23.60;;
4652;SDS011;9900;48.738;9.306;2023-03-03T05:43:00;49.40;;;24.33;;
4652;SDS011;9900;48.738;9.306;2023-03-03T05:45:29;52.57;;;24.00;;
4652;SDS011;9900;48.738;9.306;2023-03-03T05:47:58;47.23;;;22.63;;
4652;SDS011;9900;48.738;9.306;2023-03-03T05:50:28;47.00;;;24.43;;
4652;SDS011;9900;48.738;9.306;2023-03-03T05:52:56;50.17;;;22.50;;
4652;SDS011;9900;48.738;9.306;2023-03-03T05:55:25;44.63;;;24.10;;
4652;SDS011;9900;48.738;9.306;2023-03-03T05:57:54;47.00;;;24.07;;
4652;SDS011;9900;48.738;9.306;2023-03-03T06:00:22;46.50;;;23.33;;
4652;SDS011;9900;48.738;9.306;2023-03-03T06:02:51;48.07;;;24.13;;
4652;SDS011;9900;48.738;9.306;2023-03-03T06:05:20;50.03;;;25.13;;
4652;SDS011;9900;48.738;9.306;2023-03-03T06:07:50;42.47;;;22.37;;
4652;SDS011;9900;48.738;9.306;2023-03-03T06:10:19;44.53;;;23.87;;
4652;SDS011;9900;48.738;9.306;2023-03-03T06:12:47;51.93;;;23.00;;
4652;SDS011;9900;48.738;9.306;2023-03-03T06:15:16;46.47;;;24.10;;
4652;SDS011;9900;48.738;9.306;2023-03-03T06:17:45;47.67;;;23.80;;
4652;SDS011;9900;48.738;9.306;2023-03-03T06:20:14;48.67;;;24.30;;
4652;SDS011;9900;48.738;9.306;2023-03-03T06:22:42;47.13;;;24.13;;
4652;SDS011;9900;48.738;9.306;2023-03-03T06:25:12;49.17;;;28.42;;
4652;SDS011;9900;48.738;9.306;2023-03-03T06:27:41;48.77;;;26.30;;
4652;SDS011;9900;48.738;9.306;2023-03-03T06:30:10;50.17;;;25.03;;
4652;SDS011;9900;48.738;9.306;2023-03-03T06:32:40;49.43;;;23.13;;
4652;SDS011;9900;48.738;9.306;2023-03-03T06:35:08;50.30;;;24.87;;
4652;SDS011;9900;48.738;9.306;2023-03-03T06:37:37;56.50;;;24.50;;
4652;SDS011;9900;48.738;9.306;2023-03-03T06:40:06;56.97;;;27.20;;
4652;SDS011;9900;48.738;9.306;2023-03-03T06:42:37;39.93;;;23.00;;
4652;SDS011;9900;48.738;9.306;2023-03-03T06:45:06;52.53;;;24.40;;
4652;SDS011;9900;48.738;9.306;2023-03-03T06:47:36;44.63;;;22.80;;
4652;SDS011;9900;48.738;9.306;2023-03-03T06:50:05;53.30;;;23.67;;
4652;SDS011;9900;48.738;9.306;2023-03-03T06:52:34;42.80;;;23.40;;
4652;SDS011;9900;48.738;9.306;2023-03-03T06:55:09;44.83;;;22.50;;
4652;SDS011;9900;48.738;9.306;2023-03-03T06:57:40;48.47;;;24.03;;
4652;SDS011;9900;48.738;9.306;2023-03-03T07:00:13;47.47;;;22.93;;
4652;SDS011;9900;48.738;9.306;2023-03-03T07:02:43;42.40;;;23.10;;
4652;SDS011;9900;48.738;9.306;2023-03-03T07:05:13;46.60;;;24.53;;
4652;SDS011;9900;48.738;9.306;2023-03-03T07:07:44;43.20;;;22.70;;
4652;SDS011;9900;48.738;9.306;2023-03-03T07:10:17;45.57;;;22.90;;
4652;SDS011;9900;48.738;9.306;2023-03-03T07:12:50;51.60;;;24.70;;
4652;SDS011;9900;48.738;9.306;2023-03-03T07:15:20;42.70;;;22.87;;
4652;SDS011;9900;48.738;9.306;2023-03-03T07:17:51;42.07;;;22.03;;
4652;SDS011;9900;48.738;9.306;2023-03-03T07:20:27;38.07;;;21.80;;
4652;SDS011;9900;48.738;9.306;2023-03-03T07:22:59;43.77;;;22.23;;
4652;SDS011;9900;48.738;9.306;2023-03-03T07:25:29;41.13;;;20.50;;
4652;SDS011;9900;48.738;9.306;2023-03-03T07:28:06;43.67;;;23.70;;
4652;SDS011;9900;48.738;9.306;2023-03-03T07:30:39;42.47;;;22.53;;
4652;SDS011;9900;48.738;9.306;2023-03-03T07:33:10;48.07;;;23.43;;
4652;SDS011;9900;48.738;9.306;2023-03-03T07:35:45;37.23;;;20.83;;
4652;SDS011;9900;48.738;9.306;2023-03-03T07:38:16;42.10;;;21.20;;
4652;SDS011;9900;48.738;9.306;2023-03-03T07:40:48;44.33;;;21.10;;
4652;SDS011;9900;48.738;9.306;2023-03-03T07:43:24;40.20;;;21.00;;
4652;SDS011;9900;48.738;9.306;2023-03-03T07:45:59;38.03;;;20.13;;
4652;SDS011;9900;48.738;9.306;2023-03-03T07:48:34;37.23;;;20.40;;
4652;SDS011;9900;48.738;9.306;2023-03-03T07:51:12;48.33;;;23.90;;
4652;SDS011;9900;48.738;9.306;2023-03-03T07:53:46;46.30;;;22.40;;
4652;SDS011;9900;48.738;9.306;2023-03-03T07:56:16;37.37;;;21.13;;
4652;SDS011;9900;48.738;9.306;2023-03-03T07:58:51;45.90;;;24.20;;
4652;SDS011;9900;48.738;9.306;2023-03-03T08:01:37;51.57;;;22.23;;
4652;SDS011;9900;48.738;9.306;2023-03-03T08:04:11;48.60;;;21.23;;
4652;SDS011;9900;48.738;9.306;2023-03-03T08:06:44;49.10;;;22.63;;
4652;SDS011;9900;48.738;9.306;2023-03-03T08:09:25;38.93;;;20.17;;
4652;SDS011;9900;48.738;9.306;2023-03-03T08:12:15;44.40;;;22.33;;
4652;SDS011;9900;48.738;9.306;2023-03-03T08:14:48;46.50;;;22.47;;
4652;SDS011;9900;48.738;9.306;2023-03-03T08:17:19;43.50;;;22.73;;
4652;SDS011;9900;48.738;9.306;2023-03-03T08:19:49;48.40;;;24.17;;
4652;SDS011;9900;48.738;9.306;2023-03-03T08:22:23;44.33;;;21.87;;
4652;SDS011;9900;48.738;9.306;2023-03-03T08:24:56;45.93;;;21.40;;
4652;SDS011;9900;48.738;9.306;2023-03-03T08:27:25;33.90;;;19.20;;
4652;SDS011;9900;48.738;9.306;2023-03-03T08:29:55;39.90;;;22.77;;
4652;SDS011;9900;48.738;9.306;2023-03-03T08:32:23;38.23;;;21.10;;
4652;SDS011;9900;48.738;9.306;2023-03-03T08:34:52;40.30;;;21.87;;
4652;SDS011;9900;48.738;9.306;2023-03-03T08:37:21;44.00;;;21.50;;
4652;SDS011;9900;48.738;9.306;2023-03-03T08:39:50;39.73;;;20.30;;
4652;SDS011;9900;48.738;9.306;2023-03-03T08:42:18;45.70;;;20.97;;
4652;SDS011;9900;48.738;9.306;2023-03-03T08:44:47;37.90;;;20.23;;
4652;SDS011;9900;48.738;9.306;2023-03-03T08:47:17;38.00;;;21.73;;
4652;SDS011;9900;48.738;9.306;2023-03-03T08:49:46;36.10;;;21.30;;
4652;SDS011;9900;48.738;9.306;2023-03-03T08:52:14;45.03;;;22.60;;
4652;SDS011;9900;48.738;9.306;2023-03-03T08:54:43;43.23;;;21.87;;
4652;SDS011;9900;48.738;9.306;2023-03-03T08:57:12;35.80;;;19.90;;
4652;SDS011;9900;48.738;9.306;2023-03-03T08:59:40;41.83;;;22.17;;
4652;SDS011;9900;48.738;9.306;2023-03-03T09:02:09;47.63;;;24.50;;
4652;SDS011;9900;48.738;9.306;2023-03-03T09:04:39;43.07;;;22.87;;
4652;SDS011;9900;48.738;9.306;2023-03-03T09:07:08;36.10;;;20.13;;
4652;SDS011;9900;48.738;9.306;2023-03-03T09:09:36;42.13;;;21.93;;
4652;SDS011;9900;48.738;9.306;2023-03-03T09:12:08;38.00;;;21.43;;
4652;SDS011;9900;48.738;9.306;2023-03-03T09:14:43;44.00;;;21.80;;
4652;SDS011;9900;48.738;9.306;2023-03-03T09:17:18;39.10;;;21.77;;
4652;SDS011;9900;48.738;9.306;2023-03-03T09:19:52;35.47;;;20.73;;
4652;SDS011;9900;48.738;9.306;2023-03-03T09:22:24;40.87;;;21.60;;
4652;SDS011;9900;48.738;9.306;2023-03-03T09:24:54;38.30;;;19.47;;
4652;SDS011;9900;48.738;9.306;2023-03-03T09:27:26;42.63;;;21.13;;
4652;SDS011;9900;48.738;9.306;2023-03-03T09:29:58;39.40;;;21.43;;
4652;SDS011;9900;48.738;9.306;2023-03-03T09:32:33;38.43;;;22.20;;
4652;SDS011;9900;48.738;9.306;2023-03-03T09:37:55;33.47;;;19.87;;
4652;SDS011;9900;48.738;9.306;2023-03-03T09:40:30;42.67;;;21.53;;
4652;SDS011;9900;48.738;9.306;2023-03-03T09:43:12;36.10;;;20.63;;
4652;SDS011;9900;48.738;9.306;2023-03-03T09:45:47;36.90;;;20.47;;
4652;SDS011;9900;48.738;9.306;2023-03-03T09:48:31;39.80;;;21.90;;
4652;SDS011;9900;48.738;9.306;2023-03-03T09:51:29;36.97;;;22.47;;
4652;SDS011;9900;48.738;9.306;2023-03-03T09:54:19;35.77;;;21.23;;
4652;SDS011;9900;48.738;9.306;2023-03-03T09:56:55;42.20;;;22.83;;
4652;SDS011;9900;48.738;9.306;2023-03-03T09:59:33;36.13;;;21.33;;
4652;SDS011;9900;48.738;9.306;2023-03-03T10:05:04;38.30;;;20.97;;
4652;SDS011;9900;48.738;9.306;2023-03-03T10:07:44;41.97;;;21.60;;
4652;SDS011;9900;48.738;9.306;2023-03-03T10:10:23;37.20;;;21.77;;
4652;SDS011;9900;48.738;9.306;2023-03-03T10:13:00;44.33;;;22.60;;
4652;SDS011;9900;48.738;9.306;2023-03-03T10:15:42;46.13;;;22.97;;
4652;SDS011;9900;48.738;9.306;2023-03-03T10:18:18;44.60;;;21.17;;
4652;SDS011;9900;48.738;9.306;2023-03-03T10:20:57;40.50;;;21.30;;
4652;SDS011;9900;48.738;9.306;2023-03-03T10:23:37;36.57;;;20.47;;
4652;SDS011;9900;48.738;9.306;2023-03-03T10:26:15;39.93;;;23.60;;
4652;SDS011;9900;48.738;9.306;2023-03-03T10:28:55;34.83;;;21.87;;
4652;SDS011;9900;48.738;9.306;2023-03-03T10:31:34;41.83;;;22.00;;
4652;SDS011;9900;48.738;9.306;2023-03-03T10:34:13;38.63;;;22.03;;
4652;SDS011;9900;48.738;9.306;2023-03-03T10:36:50;42.03;;;22.27;;
4652;SDS011;9900;48.738;9.306;2023-03-03T10:39:38;39.37;;;22.27;;
4652;SDS011;9900;48.738;9.306;2023-03-03T10:42:15;42.67;;;22.90;;
4652;SDS011;9900;48.738;9.306;2023-03-03T10:44:55;39.73;;;22.60;;
4652;SDS011;9900;48.738;9.306;2023-03-03T10:47:35;38.50;;;21.47;;
4652;SDS011;9900;48.738;9.306;2023-03-03T10:50:16;45.73;;;22.47;;
4652;SDS011;9900;48.738;9.306;2023-03-03T10:52:50;37.47;;;22.40;;
4652;SDS011;9900;48.738;9.306;2023-03-03T10:55:34;43.77;;;22.90;;
4652;SDS011;9900;48.738;9.306;2023-03-03T10:58:10;38.40;;;24.70;;
4652;SDS011;9900;48.738;9.306;2023-03-03T11:00:48;46.33;;;23.23;;
4652;SDS011;9900;48.738;9.306;2023-03-03T11:03:33;40.47;;;24.07;;
4652;SDS011;9900;48.738;9.306;2023-03-03T11:06:17;42.37;;;22.83;;
4652;SDS011;9900;48.738;9.306;2023-03-03T11:08:51;43.93;;;23.07;;
4652;SDS011;9900;48.738;9.306;2023-03-03T11:11:26;43.00;;;23.67;;
4652;SDS011;9900;48.738;9.306;2023-03-03T11:14:01;37.73;;;23.60;;
4652;SDS011;9900;48.738;9.306;2023-03-03T11:19:29;47.97;;;24.50;;
4652;SDS011;9900;48.738;9.306;2023-03-03T11:22:18;45.43;;;24.07;;
4652;SDS011;9900;48.738;9.306;2023-03-03T11:24:55;42.00;;;25.23;;
4652;SDS011;9900;48.738;9.306;2023-03-03T11:27:38;45.10;;;23.50;;
4652;SDS011;9900;48.738;9.306;2023-03-03T11:30:27;41.73;;;23.47;;
4652;SDS011;9900;48.738;9.306;2023-03-03T11:33:05;41.23;;;23.47;;
4652;SDS011;9900;48.738;9.306;2023-03-03T11:35:40;43.70;;;22.63;;
4652;SDS011;9900;48.738;9.306;2023-03-03T11:38:17;37.60;;;21.87;;
4652;SDS011;9900;48.738;9.306;2023-03-03T11:41:00;36.80;;;22.53;;
4652;SDS011;9900;48.738;9.306;2023-03-03T11:43:33;37.23;;;22.40;;
4652;SDS011;9900;48.738;9.306;2023-03-03T11:46:06;37.90;;;23.23;;
4652;SDS011;9900;48.738;9.306;2023-03-03T11:48:41;38.63;;;22.77;;
4652;SDS011;9900;48.738;9.306;2023-03-03T11:51:14;40.20;;;22.13;;
4652;SDS011;9900;48.738;9.306;2023-03-03T11:53:53;39.80;;;22.20;;
4652;SDS011;9900;48.738;9.306;2023-03-03T11:56:26;37.23;;;22.40;;
4652;SDS011;9900;48.738;9.306;2023-03-03T11:59:01;43.80;;;23.23;;
4652;SDS011;9900;48.738;9.306;2023-03-03T12:01:38;36.10;;;22.43;;
4652;SDS011;9900;48.738;9.306;2023-03-03T12:04:10;43.70;;;24.47;;
4652;SDS011;9900;48.738;9.306;2023-03-03T12:06:44;44.07;;;23.50;;
4652;SDS011;9900;48.738;9.306;2023-03-03T12:09:28;41.80;;;22.23;;
4652;SDS011;9900;48.738;9.306;2023-03-03T12:12:03;38.03;;;21.97;;
4652;SDS011;9900;48.738;9.306;2023-03-03T12:14:40;38.00;;;21.43;;
4652;SDS011;9900;48.738;9.306;2023-03-03T12:17:19;40.17;;;22.80;;
4652;SDS011;9900;48.738;9.306;2023-03-03T12:19:57;38.93;;;22.73;;
4652;SDS011;9900;48.738;9.306;2023-03-03T12:22:30;38.93;;;22.30;;
4652;SDS011;9900;48.738;9.306;2023-03-03T12:25:17;37.87;;;22.70;;
4652;SDS011;9900;48.738;9.306;2023-03-03T12:27:53;30.87;;;19.43;;
4652;SDS011;9900;48.738;9.306;2023-03-03T12:30:29;38.20;;;21.60;;
4652;SDS011;9900;48.738;9.306;2023-03-03T12:33:09;41.80;;;22.73;;
4652;SDS011;9900;48.738;9.306;2023-03-03T12:35:45;38.53;;;22.37;;
4652;SDS011;9900;48.738;9.306;2023-03-03T12:38:22;41.20;;;22.70;;
4652;SDS011;9900;48.738;9.306;2023-03-03T12:40:58;40.63;;;22.07;;
4652;SDS011;9900;48.738;9.306;2023-03-03T12:43:32;33.80;;;21.63;;
4652;SDS011;9900;48.738;9.306;2023-03-03T12:46:18;40.47;;;23.00;;
4652;SDS011;9900;48.738;9.306;2023-03-03T12:48:54;33.13;;;20.87;;
4652;SDS011;9900;48.738;9.306;2023-03-03T12:51:30;32.97;;;21.30;;
4652;SDS011;9900;48.738;9.306;2023-03-03T12:57:05;39.17;;;21.53;;
4652;SDS011;9900;48.738;9.306;2023-03-03T12:59:41;31.93;;;20.63;;
4652;SDS011;9900;48.738;9.306;2023-03-03T13:02:24;39.20;;;21.97;;
4652;SDS011;9900;48.738;9.306;2023-03-03T13:05:03;37.87;;;21.63;;
4652;SDS011;9900;48.738;9.306;2023-03-03T13:07:39;32.57;;;20.70;;
4652;SDS011;9900;48.738;9.306;2023-03-03T13:10:12;40.80;;;21.50;;
4652;SDS011;9900;48.738;9.306;2023-03-03T13:12:44;37.87;;;21.83;;
4652;SDS011;9900;48.738;9.306;2023-03-03T13:15:15;36.77;;;21.17;;
4652;SDS011;9900;48.738;9.306;2023-03-03T13:17:59;36.70;;;20.30;;
4652;SDS011;9900;48.738;9.306;2023-03-03T13:20:42;35.80;;;20.70;;
4652;SDS011;9900;48.738;9.306;2023-03-03T13:23:18;34.33;;;19.93;;
4652;SDS011;9900;48.738;9.306;2023-03-03T13:25:54;34.40;;;20.60;;
4652;SDS011;9900;48.738;9.306;2023-03-03T13:28:27;34.10;;;21.80;;
4652;SDS011;9900;48.738;9.306;2023-03-03T13:31:01;33.77;;;20.47;;
4652;SDS011;9900;48.738;9.306;2023-03-03T13:33:34;30.27;;;18.70;;
4652;SDS011;9900;48.738;9.306;2023-03-03T13:36:04;29.00;;;19.67;;
4652;SDS011;9900;48.738;9.306;2023-03-03T13:38:37;33.77;;;18.73;;
4652;SDS011;9900;48.738;9.306;2023-03-03T13:41:09;30.33;;;18.63;;
4652;SDS011;9900;48.738;9.306;2023-03-03T13:43:44;35.77;;;18.33;;
4652;SDS011;9900;48.738;9.306;2023-03-03T13:46:15;31.00;;;17.90;;
4652;SDS011;9900;48.738;9.306;2023-03-03T13:51:49;31.17;;;18.00;;
4652;SDS011;9900;48.738;9.306;2023-03-03T13:54:27;34.80;;;19.90;;
4652;SDS011;9900;48.738;9.306;2023-03-03T13:57:22;41.93;;;22.80;;
4652;SDS011;9900;48.738;9.306;2023-03-03T14:00:00;52.97;;;27.23;;
4652;SDS011;9900;48.738;9.306;2023-03-03T14:05:37;35.23;;;21.37;;
4652;SDS011;9900;48.738;9.306;2023-03-03T14:08:11;34.73;;;19.67;;
4652;SDS011;9900;48.738;9.306;2023-03-03T14:10:52;31.67;;;19.67;;
4652;SDS011;9900;48.738;9.306;2023-03-03T14:13:27;33.77;;;18.50;;
4652;SDS011;9900;48.738;9.306;2023-03-03T14:16:01;27.93;;;19.17;;
4652;SDS011;9900;48.738;9.306;2023-03-03T14:18:34;33.87;;;20.03;;
4652;SDS011;9900;48.738;9.306;2023-03-03T14:21:08;33.53;;;19.70;;
4652;SDS011;9900;48.738;9.306;2023-03-03T14:23:44;34.97;;;19.43;;
4652;SDS011;9900;48.738;9.306;2023-03-03T14:26:21;31.13;;;18.60;;
4652;SDS011;9900;48.738;9.306;2023-03-03T14:28:51;33.60;;;17.87;;
4652;SDS011;9900;48.738;9.306;2023-03-03T14:31:37;32.87;;;19.20;;
4652;SDS011;9900;48.738;9.306;2023-03-03T14:34:13;31.57;;;19.67;;
4652;SDS011;9900;48.738;9.306;2023-03-03T14:36:58;38.20;;;19.60;;
4652;SDS011;9900;48.738;9.306;2023-03-03T14:39:37;34.97;;;20.90;;
4652;SDS011;9900;48.738;9.306;2023-03-03T14:42:09;37.33;;;19.63;;
4652;SDS011;9900;48.738;9.306;2023-03-03T14:44:48;29.87;;;19.43;;
4652;SDS011;9900;48.738;9.306;2023-03-03T14:47:20;28.50;;;18.80;;
4652;SDS011;9900;48.738;9.306;2023-03-03T14:49:50;34.23;;;19.13;;
4652;SDS011;9900;48.738;9.306;2023-03-03T14:52:23;32.47;;;17.77;;
4652;SDS011;9900;48.738;9.306;2023-03-03T14:54:54;33.13;;;20.30;;
4652;SDS011;9900;48.738;9.306;2023-03-03T14:57:37;35.60;;;19.37;;
4652;SDS011;9900;48.738;9.306;2023-03-03T15:00:29;32.83;;;19.97;;
4652;SDS011;9900;48.738;9.306;2023-03-03T15:03:04;39.80;;;23.10;;
4652;SDS011;9900;48.738;9.306;2023-03-03T15:05:48;39.40;;;25.23;;
4652;SDS011;9900;48.738;9.306;2023-03-03T15:08:23;38.07;;;23.30;;
4652;SDS011;9900;48.738;9.306;2023-03-03T15:11:10;39.13;;;21.83;;
4652;SDS011;9900;48.738;9.306;2023-03-03T15:13:40;35.97;;;20.77;;
4652;SDS011;9900;48.738;9.306;2023-03-03T15:16:09;33.43;;;19.47;;
4652;SDS011;9900;48.738;9.306;2023-03-03T15:18:52;35.03;;;20.77;;
4652;SDS011;9900;48.738;9.306;2023-03-03T15:21:28;38.20;;;20.33;;
4652;SDS011;9900;48.738;9.306;2023-03-03T15:24:00;30.60;;;19.63;;
4652;SDS011;9900;48.738;9.306;2023-03-03T15:26:34;38.07;;;21.37;;
4652;SDS011;9900;48.738;9.306;2023-03-03T15:29:12;31.70;;;19.90;;
4652;SDS011;9900;48.738;9.306;2023-03-03T15:31:44;38.03;;;20.97;;
4652;SDS011;9900;48.738;9.306;2023-03-03T15:34:20;34.60;;;19.50;;
4652;SDS011;9900;48.738;9.306;2023-03-03T15:36:55;33.10;;;19.37;;
4652;SDS011;9900;48.738;9.306;2023-03-03T15:39:30;36.97;;;19.90;;
4652;SDS011;9900;48.738;9.306;2023-03-03T15:42:08;34.10;;;22.17;;